Errol, NH (03579)

6:49 PM EST on January 21, 2017 (GMT -0500)
MERRN3 | | Change Station
Active Advisory: Gale Watch

Elev 1535 ft 44.78 °N, 71.13 °W | Updated 42 minutes ago

Overcast
Overcast
33.0 °F
Feels Like 33.0 °F
N
-
Wind Variable Wind from North

Today
High -- | Low -- °F
--% Chance of Precip.
Yesterday
High -- | Low -- °F
Precip. -- in
Pressure 29.72 in
Visibility 9.0 miles
Clouds Overcast 1400 ft
Dew Point Not available.
Humidity Not available.
Rainfall in
Snow Depth Not available.
7:14 AM 4:38 PM
Waning Crescent, 31% visible
SPECI KBML 212304Z AUTO 00000KT 9SM OVC014 02/M01 A2972 RMK AO2 T00171006
Pressure 29.72 in
Visibility 9.0 miles
Clouds Overcast 1400 ft
Dew Point Not available.
Humidity Not available.
Rainfall in
Snow Depth Not available.
7:14 AM 4:38 PM
Waning Crescent, 31% visible
SPECI KBML 212304Z AUTO 00000KT 9SM OVC014 02/M01 A2972 RMK AO2 T00171006

Get Your Daily Forecast Email!

Thanks for signing up!

Be on the lookout for a verification email in your inbox.

You'll start receiving the daily forecast at 8 AM.

×

10-Day Weather Forecast

Almanac

Astronomy

Jan. 21, 2017 Rise Set
Actual Time
Civil Twilight
Nautical Twilight
Astronomical Twilight
Moon
Length of Visible Light
Length of Day
Tomorrow will be .
, % of the Moon is Illuminated

Today's Extremes

State Highs State Lows

Community

WunderPhotos

Upload Photos

1,962,540 photos uploaded!

WunderBlog® & News

Nearby

Air Quality

  Air Quality AQ Index Pollutant
Not available.

Snow Depth

Station Depth Elevation

Earthquake Activity

City Distance Mag. Time & Date
Minimum magnitude displayed is 2.5.

Coastal Water Temperatures

Place Temperature

Stations

Nearby Weather Stations

Station Location Temp. Windchill Dew Point Humidity Wind Precip. Elev Updated Type
                   

Watches & Warnings

Gale Watch
Issued: 3:25 PM EST Jan. 21, 2017 – National Weather Service

... Gale watch remains in effect from Monday afternoon through
late Monday night...

* winds... northeast 20 to 30 kt with gusts up to 45 kt.

* Seas... 4 to 7 feet.

Precautionary/preparedness actions...

A gale watch is issued when the risk of gale force winds of 34 to
47 knots has significantly increased... but the specific timing
and/or location is still uncertain. It is intended to provide
additional lead time for mariners who may wish to consider
altering their plans.